Latest Weather Observations for Geraldton Airport

IDW60801

Issued at 9:35 am WST Saturday 30 August 2014 (issued every 30 minutes, with the page automatically refreshed every 10 minutes)

About weather observations | Map of weather stations | Latest weather observations for WA | Other Formats
Station Details ID: 008315 Name: GERALDTON AIRPORT Lat: -28.80 Lon: 114.70 Height: 29.7 m
Data from the previous 72 hours. | See also: Recent months at Geraldton Airport
Date/Time
WST
Temp
°C
App
Temp
°C
Dew
Point
Rel
Hum
%
Delta-T
°C
Wind Press
QNH
hPa
Press
MSL
hPa
Rain
since 9 am
mm
Dir
 
Spd
km/h
Gust
km/h
Spd
kts
Gust
kts
30/09:30am 21.4 20.4 17.6 79 2.3 W 19 24 10 13 1017.2 - 0.0
30/09:00am 21.3 20.3 17.6 79 2.3 WNW 19 22 10 12 1017.0 1017.0 0.6
30/08:30am 20.3 20.0 17.4 83 1.8 WNW 15 20 8 11 1016.9 - 0.6
30/08:00am 19.2 19.2 17.2 88 1.2 W 13 17 7 9 1016.7 - 0.6
30/07:30am 19.1 19.6 17.5 90 1.0 WNW 11 17 6 9 1016.4 - 0.6
30/07:00am 18.6 18.6 17.2 91 0.8 W 13 15 7 8 1016.1 - 0.6
30/06:45am 18.8 18.6 17.5 92 0.8 W 15 19 8 10 1015.9 - 0.6
30/06:26am 19.5 19.7 17.6 89 1.2 W 13 17 7 9 1015.8 - 0.4
30/06:00am 19.4 17.8 16.4 83 1.8 W 20 26 11 14 1015.6 1015.6 0.2
30/05:30am 18.8 18.8 17.3 91 0.9 WNW 13 17 7 9 1015.4 - 0.2
30/05:00am 18.9 17.8 17.3 90 1.0 WNW 19 26 10 14 1015.3 - 0.2
30/04:30am 18.7 16.6 17.2 91 0.9 WNW 24 35 13 19 1015.3 - 0.2
30/04:21am 19.0 15.7 17.1 89 1.2 NW 30 39 16 21 1015.4 - 0.2
30/04:03am 19.1 16.5 16.9 87 1.3 W 26 37 14 20 1015.4 - 0.2
30/04:00am 19.4 16.7 16.6 84 1.7 W 26 37 14 20 1015.4 - 0.0
30/03:30am 19.4 18.1 17.3 88 1.3 NW 20 28 11 15 1015.6 - 0.0
30/03:00am 18.7 18.0 17.4 92 0.8 N 17 24 9 13 1015.5 1015.5 0.0
30/02:30am 18.3 17.5 17.0 92 0.8 NNW 17 20 9 11 1015.7 - 0.0
30/02:00am 18.1 17.3 17.0 93 0.7 NNW 17 22 9 12 1015.8 - 0.0
30/01:30am 18.3 17.5 17.2 93 0.7 NNW 17 24 9 13 1015.9 - 0.0
30/01:00am 17.8 17.7 16.9 94 0.5 N 13 19 7 10 1016.0 - 0.0
30/12:30am 17.6 17.4 16.8 95 0.5 N 13 17 7 9 1016.1 - 0.0
30/12:00am 17.5 16.9 16.6 94 0.5 N 15 17 8 9 1016.5 1016.5 0.0
 
Date/Time
WST
Temp
°C
App
Temp
°C
Dew
Point
Rel
Hum
%
Delta-T
°C
Wind Press
QNH
hPa
Press
MSL
hPa
Rain
since 9 am
mm
Dir
 
Spd
km/h
Gust
km/h
Spd
kts
Gust
kts
29/11:30pm 17.6 17.0 16.6 94 0.6 N 15 19 8 10 1016.4 - 0.0
29/11:00pm 18.0 17.4 16.7 92 0.8 N 15 19 8 10 1016.9 - 0.0
29/10:30pm 18.4 17.5 16.8 90 1.0 NNW 17 22 9 12 1017.2 - 0.0
29/10:00pm 18.1 17.8 16.5 90 1.0 N 13 15 7 8 1017.2 - 0.0
29/09:36pm 18.6 18.4 16.8 89 1.1 N 13 17 7 9 1017.4 - 0.0
29/09:30pm 18.7 18.6 16.9 89 1.1 N 13 17 7 9 1017.4 - 0.0
29/09:24pm 18.6 18.5 16.9 90 1.0 N 13 17 7 9 1017.4 - 0.0
29/09:00pm 19.4 18.7 17.4 88 1.2 N 17 20 9 11 1017.2 1017.2 0.0
29/08:30pm 19.9 19.1 17.1 84 1.7 NNW 17 24 9 13 1017.1 - 0.0
29/08:00pm 19.9 18.7 17.1 84 1.7 NNW 19 26 10 14 1016.9 - 0.0
29/07:30pm 19.8 19.0 17.2 85 1.6 NNW 17 24 9 13 1016.7 - 0.0
29/07:00pm 19.8 18.7 17.4 86 1.5 NNW 19 24 10 13 1016.5 - 0.0
29/06:30pm 19.7 19.0 17.3 86 1.5 NNW 17 22 9 12 1016.1 - 0.0
29/06:00pm 20.1 19.0 17.2 83 1.8 NW 19 26 10 14 1016.0 1016.0 0.0
29/05:30pm 21.0 19.0 17.3 79 2.3 NW 24 32 13 17 1015.9 - 0.0
29/05:00pm 21.6 20.0 17.4 77 2.6 NW 22 32 12 17 1016.0 - 0.0
29/04:30pm 21.7 19.2 17.2 75 2.8 NW 26 37 14 20 1016.0 - 0.0
29/04:00pm 21.9 19.0 17.0 73 3.0 NW 28 37 15 20 1015.9 - 0.0
29/03:30pm 21.9 18.6 17.0 73 3.0 NW 30 39 16 21 1015.8 - 0.0
29/03:00pm 23.0 19.9 16.5 67 4.0 NW 28 35 15 19 1015.7 1015.7 0.0
29/02:30pm 23.5 21.2 17.6 69 3.7 NW 26 35 14 19 1015.6 - 0.0
29/02:00pm 23.2 20.6 16.8 67 3.9 NW 26 35 14 19 1015.5 - 0.0
29/01:30pm 23.2 21.2 16.5 66 4.1 NW 22 32 12 17 1015.8 - 0.0
29/01:00pm 23.6 21.3 15.8 61 4.7 NW 22 35 12 19 1016.2 - 0.0
29/12:30pm 23.2 20.7 16.2 64 4.3 NW 24 35 13 19 1016.7 - 0.0
29/12:00pm 23.2 20.8 16.3 65 4.2 NW 24 32 13 17 1017.0 1017.0 0.0
29/11:30am 23.4 20.9 16.1 63 4.4 NW 24 32 13 17 1017.1 - 0.0
29/11:00am 23.5 22.2 16.7 65 4.2 NW 19 26 10 14 1017.1 - 0.0
29/10:30am 22.8 21.5 16.7 68 3.7 NNW 19 28 10 15 1017.2 - 0.0
29/10:00am 19.8 18.7 17.3 85 1.5 NNE 19 24 10 13 1017.3 - 0.0
29/09:30am 18.4 17.1 16.7 90 1.0 NNE 19 24 10 13 1017.4 - 0.0
29/09:02am 16.6 14.7 15.8 95 0.5 NNE 20 24 11 13 1017.5 - 0.0
29/09:00am 16.6 14.8 15.9 96 0.4 NNE 20 - 11 - - 1017.5 0.2
29/08:55am 16.7 15.1 16.0 96 0.4 NNE 19 24 10 13 1017.5 - 0.2
29/08:49am 16.1 14.3 15.6 97 0.3 NNE 19 26 10 14 1017.4 - 0.2
29/08:30am 15.6 13.7 15.3 98 0.2 NNE 19 24 10 13 1017.3 - 0.2
29/08:00am 15.0 13.3 14.8 99 0.1 N 17 20 9 11 1016.8 - 0.2
29/07:58am 15.0 13.3 14.8 99 0.1 N 17 20 9 11 1016.8 - 0.2
29/07:45am 14.3 12.7 14.0 98 0.2 N 15 19 8 10 1016.6 - 0.2
29/07:30am 13.1 10.7 12.8 98 0.2 NNE 17 20 9 11 1016.2 - 0.2
29/07:22am 13.3 11.4 13.0 98 0.2 NNE 15 19 8 10 1016.2 - 0.2
29/07:05am 12.5 10.3 12.1 97 0.2 NNE 15 19 8 10 1016.1 - 0.2
29/07:00am 12.5 9.9 12.0 97 0.3 NNE 17 19 9 10 1016.1 - 0.2
29/06:30am 12.2 9.5 11.8 97 0.2 NNE 17 20 9 11 1015.9 - 0.2
29/06:00am 11.8 9.3 11.2 96 0.3 NNE 15 17 8 9 1015.8 1015.8 0.2
29/05:30am 11.2 8.2 10.8 97 0.2 NNE 17 20 9 11 1015.6 - 0.2
29/05:26am 11.3 8.3 10.8 97 0.3 NNE 17 19 9 10 1015.6 - 0.2
29/05:00am 11.2 8.2 10.8 97 0.2 NNE 17 20 9 11 1015.6 - 0.2
29/04:52am 11.5 8.5 10.7 95 0.4 NNE 17 20 9 11 1015.6 - 0.2
29/04:30am 11.3 8.3 10.7 96 0.3 NNE 17 20 9 11 1015.6 - 0.2
29/04:00am 11.4 8.8 10.8 96 0.3 NNE 15 19 8 10 1015.6 - 0.2
29/03:34am 11.1 8.1 10.5 96 0.3 N 17 20 9 11 1015.7 - 0.2
29/03:30am 10.9 7.8 10.2 95 0.4 N 17 20 9 11 1015.7 - 0.2
29/03:00am 10.5 8.1 9.9 96 0.3 NNE 13 15 7 8 1015.9 1015.9 0.2
29/02:30am 11.2 8.5 10.4 95 0.4 N 15 17 8 9 1016.1 - 0.2
29/02:00am 10.6 7.7 9.8 95 0.4 NNE 15 17 8 9 1016.0 - 0.2
29/01:30am 10.9 8.5 10.1 95 0.4 NNE 13 17 7 9 1016.3 - 0.2
29/01:00am 11.7 9.1 10.6 93 0.6 N 15 17 8 9 1016.5 - 0.2
29/12:30am 11.9 9.3 10.7 92 0.6 NNE 15 19 8 10 1016.5 - 0.2
29/12:00am 12.1 9.1 10.8 92 0.7 NNE 17 20 9 11 1016.7 1016.7 0.2
 
Date/Time
WST
Temp
°C
App
Temp
°C
Dew
Point
Rel
Hum
%
Delta-T
°C
Wind Press
QNH
hPa
Press
MSL
hPa
Rain
since 9 am
mm
Dir
 
Spd
km/h
Gust
km/h
Spd
kts
Gust
kts
28/11:30pm 12.6 9.7 11.1 91 0.8 N 17 19 9 10 1016.8 - 0.2
28/11:00pm 12.7 9.5 11.2 91 0.8 N 19 20 10 11 1017.0 - 0.2
28/10:30pm 12.4 9.5 11.1 92 0.7 N 17 19 9 10 1017.2 - 0.2
28/10:00pm 12.9 10.1 11.4 91 0.8 NNE 17 19 9 10 1017.3 - 0.2
28/09:30pm 13.2 10.9 11.8 91 0.7 N 15 17 8 9 1017.2 - 0.2
28/09:00pm 13.5 11.2 11.9 90 0.9 NNE 15 15 8 8 1017.2 1017.2 0.2
28/08:30pm 13.1 11.6 11.8 92 0.7 N 11 13 6 7 1017.2 - 0.2
28/08:00pm 13.2 12.0 11.7 91 0.8 NNE 9 13 5 7 1016.9 - 0.2
28/07:30pm 13.9 13.4 12.5 91 0.8 N 7 9 4 5 1016.8 - 0.2
28/07:00pm 16.1 15.4 14.4 90 1.0 NNW 11 13 6 7 1016.6 - 0.2
28/06:30pm 16.8 16.1 14.4 86 1.4 NW 11 13 6 7 1016.4 - 0.2
28/06:00pm 18.5 18.0 14.9 79 2.1 NNW 11 13 6 7 1016.2 1016.2 0.2
28/05:30pm 20.8 20.1 15.5 71 3.2 NW 13 15 7 8 1016.2 - 0.2
28/05:00pm 22.7 21.2 14.2 58 5.0 WNW 15 19 8 10 1016.0 - 0.2
28/04:30pm 24.1 21.1 10.6 42 7.5 WNW 17 20 9 11 1015.8 - 0.2
28/04:00pm 24.3 21.1 11.1 43 7.4 W 19 20 10 11 1015.7 - 0.2
28/03:30pm 24.7 21.9 12.5 46 7.0 W 19 24 10 13 1015.8 - 0.2
28/03:00pm 24.6 22.3 14.2 52 6.1 W 19 24 10 13 1015.8 1015.8 0.2
28/02:30pm 24.6 22.4 14.3 52 6.1 W 19 24 10 13 1015.8 - 0.2
28/02:00pm 25.3 23.0 13.0 46 7.2 WSW 17 20 9 11 1015.8 - 0.2
28/01:30pm 26.2 24.0 13.3 45 7.6 W 17 22 9 12 1015.9 - 0.2
28/01:00pm 27.5 25.9 11.4 36 9.2 WNW 11 15 6 8 1016.0 - 0.2
28/12:30pm 27.1 25.3 9.4 33 9.8 W 9 13 5 7 1016.4 - 0.2
28/12:00pm 26.9 25.4 10.6 36 9.2 NW 9 15 5 8 1016.7 1016.7 0.2
28/11:30am 26.8 22.5 6.9 28 10.5 NNE 19 24 10 13 1016.8 - 0.2
28/11:00am 25.2 20.8 10.3 39 8.3 NNE 24 30 13 16 1017.1 - 0.0
28/10:30am 23.2 19.5 12.7 51 6.0 NNE 24 33 13 18 1017.3 - 0.0
28/10:00am 19.7 17.1 13.8 69 3.4 NNE 20 30 11 16 1017.6 - 0.0
28/09:30am 18.0 15.3 13.6 75 2.5 NNE 20 30 11 16 1017.8 - 0.0
28/09:00am 16.9 13.2 12.6 76 2.4 NNE 24 30 13 16 1017.8 1017.9 0.0
28/08:30am 15.3 11.9 12.4 83 1.6 NNE 22 30 12 16 1017.8 - 0.0
28/08:00am 14.9 11.0 12.0 83 1.6 NNE 24 32 13 17 1017.6 - 0.0
28/07:30am 12.8 8.5 10.9 88 1.0 NNE 24 30 13 16 1017.6 - 0.0
28/07:00am 12.2 8.7 10.9 92 0.7 NNE 20 26 11 14 1017.3 - 0.0
28/06:30am 11.9 8.3 10.6 92 0.7 NNE 20 26 11 14 1017.0 - 0.0
28/06:00am 11.6 8.0 10.4 92 0.6 NNE 20 26 11 14 1016.9 1016.9 0.0
28/05:30am 11.4 7.7 10.3 93 0.6 NE 20 26 11 14 1016.8 - 0.0
28/05:00am 11.4 7.7 10.2 92 0.6 NNE 20 26 11 14 1017.0 - 0.0
28/04:30am 11.5 7.9 10.4 93 0.6 NNE 20 26 11 14 1016.9 - 0.0
28/04:00am 11.4 7.7 10.0 91 0.7 NNE 20 24 11 13 1016.8 - 0.0
28/03:30am 11.4 7.9 10.2 92 0.6 NE 19 22 10 12 1017.0 - 0.0
28/03:00am 11.0 7.4 9.8 92 0.6 NNE 19 20 10 11 1017.2 1017.2 0.0
28/02:30am 11.2 7.5 10.0 92 0.6 NNE 20 24 11 13 1017.2 - 0.0
28/02:00am 11.4 7.8 10.4 94 0.5 NNE 20 26 11 14 1017.5 - 0.0
28/01:30am 11.3 8.3 10.5 95 0.4 NNE 17 20 9 11 1017.9 - 0.0
28/01:00am 11.1 7.6 10.1 94 0.5 NNE 19 22 10 12 1018.1 - 0.0
28/12:30am 11.0 7.5 10.2 95 0.4 NNE 19 20 10 11 1018.2 - 0.0
28/12:00am 11.4 8.1 10.8 96 0.3 NE 19 20 10 11 1018.2 1018.3 0.0
 
Date/Time
WST
Temp
°C
App
Temp
°C
Dew
Point
Rel
Hum
%
Delta-T
°C
Wind Press
QNH
hPa
Press
MSL
hPa
Rain
since 9 am
mm
Dir
 
Spd
km/h
Gust
km/h
Spd
kts
Gust
kts
27/11:30pm 10.9 7.9 10.6 98 0.2 ENE 17 20 9 11 1018.3 - 0.0
27/11:00pm 10.3 8.3 10.0 98 0.2 NE 11 13 6 7 1018.5 - 0.0
27/10:30pm 11.2 8.9 10.6 96 0.3 NNE 13 13 7 7 1018.8 - 0.0
27/10:29pm 11.2 8.9 10.5 95 0.4 NNE 13 13 7 7 1018.8 - 0.0
27/10:00pm 10.0 8.3 9.8 99 0.1 ENE 9 11 5 6 1018.9 - 0.0
27/09:30pm 12.2 11.1 11.8 97 0.2 S 9 11 5 6 1019.1 - 0.0
27/09:23pm 12.4 11.1 11.3 93 0.6 S 9 9 5 5 1019.2 - 0.0
27/09:00pm 11.3 10.2 10.7 96 0.3 SE 7 9 4 5 1019.2 1019.3 0.0
27/08:44pm 12.6 11.1 12.0 96 0.3 SE 11 11 6 6 1019.2 - 0.0
27/08:30pm 12.2 11.3 11.4 95 0.4 SE 7 9 4 5 1019.3 - 0.0
27/07:58pm 13.4 12.9 12.5 94 0.5 SE 7 7 4 4 1019.4 - 0.0
27/07:30pm 14.8 14.3 13.9 94 0.5 SE 9 13 5 7 1019.2 - 0.0
27/07:00pm 15.6 14.9 14.4 93 0.7 SSE 11 13 6 7 1019.0 - 0.0
27/06:30pm 16.6 16.1 15.0 90 0.9 SSE 11 15 6 8 1018.8 - 0.0
27/06:00pm 17.7 17.3 15.3 86 1.4 SSE 11 13 6 7 1018.7 1018.8 0.0
27/05:30pm 19.4 18.7 15.5 78 2.3 SSE 13 17 7 9 1018.4 - 0.0
27/05:00pm 20.3 18.6 14.8 70 3.2 S 17 22 9 12 1018.4 - 0.0
27/04:30pm 21.2 19.0 14.4 65 4.0 S 19 24 10 13 1018.1 - 0.0
27/04:00pm 22.1 20.2 14.3 61 4.6 S 17 20 9 11 1017.7 - 0.0
27/03:30pm 22.4 20.7 13.6 57 5.1 S 15 20 8 11 1017.8 - 0.0
27/03:00pm 22.3 21.2 14.2 60 4.7 S 13 19 7 10 1017.8 1017.9 0.0
27/02:30pm 22.4 19.9 14.0 59 4.9 S 20 28 11 15 1018.0 - 0.0
27/02:00pm 22.6 19.8 13.2 55 5.4 S 20 24 11 13 1018.2 - 0.0
27/01:30pm 23.1 20.4 13.4 54 5.6 SSW 20 26 11 14 1018.3 - 0.0
27/01:00pm 23.0 19.6 13.6 55 5.5 SSW 24 30 13 16 1018.6 - 0.0
27/12:30pm 24.0 22.7 13.6 52 6.1 S 13 20 7 11 1018.8 - 0.0
27/12:00pm 22.9 21.4 13.0 53 5.7 S 13 17 7 9 1019.3 1019.4 0.0
27/11:30am 22.2 21.3 13.8 59 4.9 SE 11 17 6 9 1019.8 - 0.0
27/11:00am 21.0 20.4 14.5 66 3.8 SSE 11 15 6 8 1020.4 - 0.0
27/10:30am 20.0 19.8 14.7 71 3.1 SSE 9 17 5 9 1021.0 - 0.0
27/10:00am 18.2 17.2 14.5 79 2.1 SSE 13 17 7 9 1021.1 - 0.0

Other Formats:

Comma delimited format used in spreadsheet applications
http://www.bom.gov.au/fwo/IDW60801/IDW60801.94403.axf

JavaScript Object Notation format (JSON) in row-major order
http://www.bom.gov.au/fwo/IDW60801/IDW60801.94403.json